CheckWX is a tool to help pilots better visualize weather data.  It is not intended as a substitute for an official pre-flight weather briefing.

00:52:36 UTC

KLHM METAR
Lincoln Regional / Karl Harder Field Airport
Lincoln, California, USA
Current

18 mins ago

KLHM 240035Z AUTO 21008KT 10SM SCT050 SCT065 BKN085 16/06 A3014 RMK AO1
Observed
Mar-24 @ 00:35 UTC
Wind
  • 210° at 8 KTS
Visibility
10 SM
Flight Rules
VFR
Cloud Levels
  • Scattered at 5,000' AGL
  • Scattered at 6,500' AGL
  • Broken at 8,500' AGL
Temperature
16°C / 61°F
Dewpoint
C / 43°F
Humidity
52%
Altimeter
30.14" Hg
Pressure
1020.62 hPa
Previous

38 mins ago

KLHM 240015Z AUTO 20009KT 10SM SCT050 SCT065 SCT075 16/06 A3014 RMK AO1
Observed
Mar-24 @ 00:15 UTC
Wind
  • 200° at 9 KTS
Visibility
10 SM
Flight Rules
VFR
Cloud Levels
  • Scattered at 5,000' AGL
  • Scattered at 6,500' AGL
  • Scattered at 7,500' AGL
Temperature
16°C / 61°F
Dewpoint
C / 43°F
Humidity
52%
Altimeter
30.14" Hg
Pressure
1020.62 hPa
Previous

58 mins ago

KLHM 232355Z AUTO 17006KT 10SM CLR 17/06 A3014 RMK AO1
Observed
Mar-23 @ 23:55 UTC
Wind
  • 170° at 6 KTS
Visibility
10 SM
Flight Rules
VFR
Cloud Levels
  • Clear skies
Temperature
17°C / 63°F
Dewpoint
C / 43°F
Humidity
49%
Altimeter
30.14" Hg
Pressure
1020.62 hPa